sensor_id;sensor_type;location;lat;lon;timestamp;P1;durP1;ratioP1;P2;durP2;ratioP2
26864;SDS011;40618;51.166;10.322;2022-12-24T00:00:21;4.10;;;1.55;;
26864;SDS011;40618;51.166;10.322;2022-12-24T00:02:48;11.68;;;1.77;;
26864;SDS011;40618;51.166;10.322;2022-12-24T00:05:14;3.25;;;1.15;;
26864;SDS011;40618;51.166;10.322;2022-12-24T00:07:40;8.05;;;1.50;;
26864;SDS011;40618;51.166;10.322;2022-12-24T00:10:06;5.25;;;1.52;;
26864;SDS011;40618;51.166;10.322;2022-12-24T00:12:33;9.43;;;2.30;;
26864;SDS011;40618;51.166;10.322;2022-12-24T00:14:59;7.65;;;1.60;;
26864;SDS011;40618;51.166;10.322;2022-12-24T00:17:26;6.60;;;1.90;;
26864;SDS011;40618;51.166;10.322;2022-12-24T00:19:51;8.15;;;1.42;;
26864;SDS011;40618;51.166;10.322;2022-12-24T00:22:17;7.00;;;1.65;;
26864;SDS011;40618;51.166;10.322;2022-12-24T00:24:42;5.03;;;1.40;;
26864;SDS011;40618;51.166;10.322;2022-12-24T00:27:08;8.68;;;1.58;;
26864;SDS011;40618;51.166;10.322;2022-12-24T00:29:34;4.03;;;1.50;;
26864;SDS011;40618;51.166;10.322;2022-12-24T00:31:59;8.80;;;1.50;;
26864;SDS011;40618;51.166;10.322;2022-12-24T00:34:25;9.57;;;1.85;;
26864;SDS011;40618;51.166;10.322;2022-12-24T00:36:51;11.35;;;1.63;;
26864;SDS011;40618;51.166;10.322;2022-12-24T00:39:17;6.07;;;1.33;;
26864;SDS011;40618;51.166;10.322;2022-12-24T00:41:42;4.65;;;1.10;;
26864;SDS011;40618;51.166;10.322;2022-12-24T00:44:08;8.27;;;1.60;;
26864;SDS011;40618;51.166;10.322;2022-12-24T00:46:36;4.72;;;1.40;;
26864;SDS011;40618;51.166;10.322;2022-12-24T00:49:04;7.72;;;1.77;;
26864;SDS011;40618;51.166;10.322;2022-12-24T00:51:32;6.75;;;1.77;;
26864;SDS011;40618;51.166;10.322;2022-12-24T00:53:59;5.30;;;1.40;;
26864;SDS011;40618;51.166;10.322;2022-12-24T00:56:24;6.93;;;1.30;;
26864;SDS011;40618;51.166;10.322;2022-12-24T00:58:51;3.00;;;1.38;;
26864;SDS011;40618;51.166;10.322;2022-12-24T01:01:17;6.18;;;1.23;;
26864;SDS011;40618;51.166;10.322;2022-12-24T01:03:44;5.68;;;1.45;;
26864;SDS011;40618;51.166;10.322;2022-12-24T01:06:11;6.50;;;1.60;;
26864;SDS011;40618;51.166;10.322;2022-12-24T01:08:40;7.65;;;1.08;;
26864;SDS011;40618;51.166;10.322;2022-12-24T01:11:07;5.85;;;1.52;;
26864;SDS011;40618;51.166;10.322;2022-12-24T01:13:34;7.18;;;1.42;;
26864;SDS011;40618;51.166;10.322;2022-12-24T01:16:00;3.70;;;1.48;;
26864;SDS011;40618;51.166;10.322;2022-12-24T01:18:27;7.35;;;1.55;;
26864;SDS011;40618;51.166;10.322;2022-12-24T01:23:27;8.48;;;1.60;;
26864;SDS011;40618;51.166;10.322;2022-12-24T01:25:54;4.75;;;1.20;;
26864;SDS011;40618;51.166;10.322;2022-12-24T01:28:23;4.50;;;1.30;;
26864;SDS011;40618;51.166;10.322;2022-12-24T01:30:49;4.22;;;1.27;;
26864;SDS011;40618;51.166;10.322;2022-12-24T01:33:14;6.47;;;1.88;;
26864;SDS011;40618;51.166;10.322;2022-12-24T01:35:40;4.22;;;1.15;;
26864;SDS011;40618;51.166;10.322;2022-12-24T01:38:07;2.20;;;1.02;;
26864;SDS011;40618;51.166;10.322;2022-12-24T01:40:35;3.78;;;1.20;;
26864;SDS011;40618;51.166;10.322;2022-12-24T01:43:23;5.60;;;1.27;;
26864;SDS011;40618;51.166;10.322;2022-12-24T01:48:23;4.65;;;1.40;;
26864;SDS011;40618;51.166;10.322;2022-12-24T01:53:42;4.65;;;1.15;;
26864;SDS011;40618;51.166;10.322;2022-12-24T01:56:13;5.03;;;1.40;;
26864;SDS011;40618;51.166;10.322;2022-12-24T01:58:41;6.80;;;1.42;;
26864;SDS011;40618;51.166;10.322;2022-12-24T02:01:12;4.60;;;1.50;;
26864;SDS011;40618;51.166;10.322;2022-12-24T02:03:37;3.05;;;1.27;;
26864;SDS011;40618;51.166;10.322;2022-12-24T02:06:03;4.65;;;1.67;;
26864;SDS011;40618;51.166;10.322;2022-12-24T02:08:31;8.00;;;1.60;;
26864;SDS011;40618;51.166;10.322;2022-12-24T02:11:11;2.88;;;1.25;;
26864;SDS011;40618;51.166;10.322;2022-12-24T02:13:41;7.15;;;1.92;;
26864;SDS011;40618;51.166;10.322;2022-12-24T02:16:16;6.10;;;1.50;;
26864;SDS011;40618;51.166;10.322;2022-12-24T02:21:47;4.47;;;1.27;;
26864;SDS011;40618;51.166;10.322;2022-12-24T02:24:30;5.10;;;1.35;;
26864;SDS011;40618;51.166;10.322;2022-12-24T02:30:12;8.63;;;1.48;;
26864;SDS011;40618;51.166;10.322;2022-12-24T02:38:25;5.75;;;1.35;;
26864;SDS011;40618;51.166;10.322;2022-12-24T02:44:15;7.38;;;1.60;;
26864;SDS011;40618;51.166;10.322;2022-12-24T02:46:48;8.68;;;1.65;;
26864;SDS011;40618;51.166;10.322;2022-12-24T02:49:15;8.63;;;1.85;;
26864;SDS011;40618;51.166;10.322;2022-12-24T02:51:41;5.80;;;1.45;;
26864;SDS011;40618;51.166;10.322;2022-12-24T02:54:06;5.60;;;1.75;;
26864;SDS011;40618;51.166;10.322;2022-12-24T02:59:34;7.72;;;1.58;;
26864;SDS011;40618;51.166;10.322;2022-12-24T03:05:37;6.90;;;1.80;;
26864;SDS011;40618;51.166;10.322;2022-12-24T03:11:10;8.25;;;1.80;;
26864;SDS011;40618;51.166;10.322;2022-12-24T03:13:39;6.38;;;1.83;;
26864;SDS011;40618;51.166;10.322;2022-12-24T03:16:11;5.05;;;1.75;;
26864;SDS011;40618;51.166;10.322;2022-12-24T03:18:45;6.20;;;1.75;;
26864;SDS011;40618;51.166;10.322;2022-12-24T03:23:52;8.52;;;1.70;;
26864;SDS011;40618;51.166;10.322;2022-12-24T03:26:19;9.65;;;1.70;;
26864;SDS011;40618;51.166;10.322;2022-12-24T03:28:45;6.40;;;1.77;;
26864;SDS011;40618;51.166;10.322;2022-12-24T03:31:13;11.32;;;1.55;;
26864;SDS011;40618;51.166;10.322;2022-12-24T03:33:39;5.60;;;1.40;;
26864;SDS011;40618;51.166;10.322;2022-12-24T03:36:06;5.82;;;1.52;;
26864;SDS011;40618;51.166;10.322;2022-12-24T03:38:33;10.95;;;2.35;;
26864;SDS011;40618;51.166;10.322;2022-12-24T03:40:59;8.05;;;2.78;;
26864;SDS011;40618;51.166;10.322;2022-12-24T03:43:25;6.13;;;1.80;;
26864;SDS011;40618;51.166;10.322;2022-12-24T03:45:50;8.88;;;1.88;;
26864;SDS011;40618;51.166;10.322;2022-12-24T03:48:16;6.97;;;1.80;;
26864;SDS011;40618;51.166;10.322;2022-12-24T03:50:42;9.02;;;2.40;;
26864;SDS011;40618;51.166;10.322;2022-12-24T03:53:07;7.95;;;1.95;;
26864;SDS011;40618;51.166;10.322;2022-12-24T03:55:33;5.85;;;1.92;;
26864;SDS011;40618;51.166;10.322;2022-12-24T03:57:58;6.57;;;2.25;;
26864;SDS011;40618;51.166;10.322;2022-12-24T04:00:24;9.07;;;1.60;;
26864;SDS011;40618;51.166;10.322;2022-12-24T04:02:50;10.23;;;1.75;;
26864;SDS011;40618;51.166;10.322;2022-12-24T04:05:16;7.05;;;2.22;;
26864;SDS011;40618;51.166;10.322;2022-12-24T04:07:44;12.68;;;2.10;;
26864;SDS011;40618;51.166;10.322;2022-12-24T04:10:11;5.20;;;1.52;;
26864;SDS011;40618;51.166;10.322;2022-12-24T04:12:38;6.38;;;1.55;;
26864;SDS011;40618;51.166;10.322;2022-12-24T04:15:04;11.50;;;2.20;;
26864;SDS011;40618;51.166;10.322;2022-12-24T04:17:31;8.43;;;1.92;;
26864;SDS011;40618;51.166;10.322;2022-12-24T04:19:57;11.00;;;2.50;;
26864;SDS011;40618;51.166;10.322;2022-12-24T04:22:23;7.97;;;2.25;;
26864;SDS011;40618;51.166;10.322;2022-12-24T04:24:48;8.70;;;1.52;;
26864;SDS011;40618;51.166;10.322;2022-12-24T04:27:14;8.30;;;1.90;;
26864;SDS011;40618;51.166;10.322;2022-12-24T04:29:41;9.15;;;1.58;;
26864;SDS011;40618;51.166;10.322;2022-12-24T04:32:07;8.75;;;2.45;;
26864;SDS011;40618;51.166;10.322;2022-12-24T04:34:34;8.13;;;1.90;;
26864;SDS011;40618;51.166;10.322;2022-12-24T04:37:00;7.28;;;1.80;;
26864;SDS011;40618;51.166;10.322;2022-12-24T04:39:26;9.18;;;1.98;;
26864;SDS011;40618;51.166;10.322;2022-12-24T04:41:51;6.82;;;1.98;;
26864;SDS011;40618;51.166;10.322;2022-12-24T04:44:17;5.13;;;2.03;;
26864;SDS011;40618;51.166;10.322;2022-12-24T04:46:43;11.73;;;2.00;;
26864;SDS011;40618;51.166;10.322;2022-12-24T04:49:09;7.07;;;1.90;;
26864;SDS011;40618;51.166;10.322;2022-12-24T04:51:35;8.40;;;2.00;;
26864;SDS011;40618;51.166;10.322;2022-12-24T04:54:01;12.88;;;2.22;;
26864;SDS011;40618;51.166;10.322;2022-12-24T04:56:28;6.15;;;2.05;;
26864;SDS011;40618;51.166;10.322;2022-12-24T04:58:57;9.20;;;1.98;;
26864;SDS011;40618;51.166;10.322;2022-12-24T05:01:28;6.50;;;1.48;;
26864;SDS011;40618;51.166;10.322;2022-12-24T05:03:56;6.03;;;1.67;;
26864;SDS011;40618;51.166;10.322;2022-12-24T05:06:24;6.35;;;2.10;;
26864;SDS011;40618;51.166;10.322;2022-12-24T05:08:54;7.80;;;2.10;;
26864;SDS011;40618;51.166;10.322;2022-12-24T05:11:22;11.07;;;2.38;;
26864;SDS011;40618;51.166;10.322;2022-12-24T05:13:48;7.95;;;2.00;;
26864;SDS011;40618;51.166;10.322;2022-12-24T05:16:18;7.00;;;1.60;;
26864;SDS011;40618;51.166;10.322;2022-12-24T05:18:45;6.95;;;2.20;;
26864;SDS011;40618;51.166;10.322;2022-12-24T05:21:15;5.72;;;1.98;;
26864;SDS011;40618;51.166;10.322;2022-12-24T05:23:45;10.65;;;2.42;;
26864;SDS011;40618;51.166;10.322;2022-12-24T05:26:34;8.13;;;2.15;;
26864;SDS011;40618;51.166;10.322;2022-12-24T05:29:07;10.05;;;2.50;;
26864;SDS011;40618;51.166;10.322;2022-12-24T05:31:36;10.88;;;2.95;;
26864;SDS011;40618;51.166;10.322;2022-12-24T05:34:04;7.88;;;2.30;;
26864;SDS011;40618;51.166;10.322;2022-12-24T05:36:30;7.63;;;2.38;;
26864;SDS011;40618;51.166;10.322;2022-12-24T05:38:57;6.32;;;1.83;;
26864;SDS011;40618;51.166;10.322;2022-12-24T05:41:23;7.25;;;1.85;;
26864;SDS011;40618;51.166;10.322;2022-12-24T05:43:49;10.05;;;1.65;;
26864;SDS011;40618;51.166;10.322;2022-12-24T05:46:16;7.03;;;1.73;;
26864;SDS011;40618;51.166;10.322;2022-12-24T05:48:45;6.85;;;1.70;;
26864;SDS011;40618;51.166;10.322;2022-12-24T05:51:12;6.57;;;1.33;;
26864;SDS011;40618;51.166;10.322;2022-12-24T05:53:39;8.35;;;2.08;;
26864;SDS011;40618;51.166;10.322;2022-12-24T05:56:09;6.30;;;1.50;;
26864;SDS011;40618;51.166;10.322;2022-12-24T05:58:45;11.07;;;1.60;;
26864;SDS011;40618;51.166;10.322;2022-12-24T06:01:11;6.75;;;1.65;;
26864;SDS011;40618;51.166;10.322;2022-12-24T06:03:38;8.07;;;1.85;;
26864;SDS011;40618;51.166;10.322;2022-12-24T06:06:09;9.63;;;1.77;;
26864;SDS011;40618;51.166;10.322;2022-12-24T06:08:41;8.82;;;2.47;;
26864;SDS011;40618;51.166;10.322;2022-12-24T06:11:08;6.20;;;1.98;;
26864;SDS011;40618;51.166;10.322;2022-12-24T06:13:37;8.27;;;2.25;;
26864;SDS011;40618;51.166;10.322;2022-12-24T06:16:05;8.07;;;1.88;;
26864;SDS011;40618;51.166;10.322;2022-12-24T06:18:33;4.78;;;1.40;;
26864;SDS011;40618;51.166;10.322;2022-12-24T06:21:00;9.35;;;1.98;;
26864;SDS011;40618;51.166;10.322;2022-12-24T06:23:28;13.15;;;2.58;;
26864;SDS011;40618;51.166;10.322;2022-12-24T06:25:56;7.40;;;1.65;;
26864;SDS011;40618;51.166;10.322;2022-12-24T06:28:25;7.25;;;1.63;;
26864;SDS011;40618;51.166;10.322;2022-12-24T06:30:55;6.75;;;2.20;;
26864;SDS011;40618;51.166;10.322;2022-12-24T06:33:21;6.35;;;1.90;;
26864;SDS011;40618;51.166;10.322;2022-12-24T06:35:46;12.43;;;1.80;;
26864;SDS011;40618;51.166;10.322;2022-12-24T06:38:13;4.63;;;1.40;;
26864;SDS011;40618;51.166;10.322;2022-12-24T06:40:40;6.22;;;1.73;;
26864;SDS011;40618;51.166;10.322;2022-12-24T06:43:08;5.65;;;1.75;;
26864;SDS011;40618;51.166;10.322;2022-12-24T06:45:35;5.97;;;1.80;;
26864;SDS011;40618;51.166;10.322;2022-12-24T06:48:01;7.55;;;1.95;;
26864;SDS011;40618;51.166;10.322;2022-12-24T06:50:27;6.05;;;1.80;;
26864;SDS011;40618;51.166;10.322;2022-12-24T06:52:53;7.43;;;1.92;;
26864;SDS011;40618;51.166;10.322;2022-12-24T06:55:18;11.52;;;2.40;;
26864;SDS011;40618;51.166;10.322;2022-12-24T06:57:44;9.93;;;2.55;;
26864;SDS011;40618;51.166;10.322;2022-12-24T07:00:10;12.45;;;2.40;;
26864;SDS011;40618;51.166;10.322;2022-12-24T07:02:40;8.20;;;2.53;;
26864;SDS011;40618;51.166;10.322;2022-12-24T07:05:08;7.05;;;1.73;;
26864;SDS011;40618;51.166;10.322;2022-12-24T07:07:39;10.80;;;2.25;;
26864;SDS011;40618;51.166;10.322;2022-12-24T07:10:09;9.90;;;2.00;;
26864;SDS011;40618;51.166;10.322;2022-12-24T07:15:03;7.88;;;2.03;;
26864;SDS011;40618;51.166;10.322;2022-12-24T07:17:30;11.68;;;1.95;;
26864;SDS011;40618;51.166;10.322;2022-12-24T07:19:55;11.52;;;1.90;;
26864;SDS011;40618;51.166;10.322;2022-12-24T07:22:21;6.43;;;2.08;;
26864;SDS011;40618;51.166;10.322;2022-12-24T07:24:47;10.68;;;2.15;;
26864;SDS011;40618;51.166;10.322;2022-12-24T07:27:13;10.65;;;1.92;;
26864;SDS011;40618;51.166;10.322;2022-12-24T07:29:38;12.18;;;2.10;;
26864;SDS011;40618;51.166;10.322;2022-12-24T07:32:05;7.72;;;2.00;;
26864;SDS011;40618;51.166;10.322;2022-12-24T07:34:31;9.63;;;2.38;;
26864;SDS011;40618;51.166;10.322;2022-12-24T07:36:56;10.00;;;2.00;;
26864;SDS011;40618;51.166;10.322;2022-12-24T07:39:22;9.18;;;2.63;;
26864;SDS011;40618;51.166;10.322;2022-12-24T07:41:47;9.30;;;1.80;;
26864;SDS011;40618;51.166;10.322;2022-12-24T07:44:14;6.43;;;1.85;;
26864;SDS011;40618;51.166;10.322;2022-12-24T07:46:41;8.35;;;2.45;;
26864;SDS011;40618;51.166;10.322;2022-12-24T07:49:07;7.88;;;2.97;;
26864;SDS011;40618;51.166;10.322;2022-12-24T07:51:33;12.10;;;3.80;;
26864;SDS011;40618;51.166;10.322;2022-12-24T07:53:59;8.77;;;3.47;;
26864;SDS011;40618;51.166;10.322;2022-12-24T07:56:24;8.02;;;1.88;;
26864;SDS011;40618;51.166;10.322;2022-12-24T07:58:50;9.20;;;1.92;;
26864;SDS011;40618;51.166;10.322;2022-12-24T08:01:16;9.70;;;1.73;;
26864;SDS011;40618;51.166;10.322;2022-12-24T08:03:43;6.07;;;1.70;;
26864;SDS011;40618;51.166;10.322;2022-12-24T08:06:09;10.15;;;1.95;;
26864;SDS011;40618;51.166;10.322;2022-12-24T08:08:35;4.63;;;1.83;;
26864;SDS011;40618;51.166;10.322;2022-12-24T08:11:03;6.57;;;1.40;;
26864;SDS011;40618;51.166;10.322;2022-12-24T08:13:31;5.05;;;1.30;;
26864;SDS011;40618;51.166;10.322;2022-12-24T08:15:57;4.88;;;1.30;;
26864;SDS011;40618;51.166;10.322;2022-12-24T08:18:24;7.35;;;1.52;;
26864;SDS011;40618;51.166;10.322;2022-12-24T08:20:50;8.50;;;1.73;;
26864;SDS011;40618;51.166;10.322;2022-12-24T08:23:16;7.20;;;1.88;;
26864;SDS011;40618;51.166;10.322;2022-12-24T08:25:43;5.22;;;2.05;;
26864;SDS011;40618;51.166;10.322;2022-12-24T08:28:12;6.18;;;2.08;;
26864;SDS011;40618;51.166;10.322;2022-12-24T08:30:43;5.85;;;1.98;;
26864;SDS011;40618;51.166;10.322;2022-12-24T08:33:09;10.15;;;2.92;;
26864;SDS011;40618;51.166;10.322;2022-12-24T08:35:38;11.18;;;2.47;;
26864;SDS011;40618;51.166;10.322;2022-12-24T08:38:04;5.20;;;1.85;;
26864;SDS011;40618;51.166;10.322;2022-12-24T08:40:30;4.85;;;2.03;;
26864;SDS011;40618;51.166;10.322;2022-12-24T08:42:55;7.53;;;1.50;;
26864;SDS011;40618;51.166;10.322;2022-12-24T08:45:21;5.88;;;1.60;;
26864;SDS011;40618;51.166;10.322;2022-12-24T08:47:47;4.93;;;1.80;;
26864;SDS011;40618;51.166;10.322;2022-12-24T08:50:13;3.03;;;1.27;;
26864;SDS011;40618;51.166;10.322;2022-12-24T08:52:38;5.30;;;1.65;;
26864;SDS011;40618;51.166;10.322;2022-12-24T08:55:04;4.70;;;1.67;;
26864;SDS011;40618;51.166;10.322;2022-12-24T08:57:30;8.43;;;1.33;;
26864;SDS011;40618;51.166;10.322;2022-12-24T09:00:00;4.82;;;1.50;;
26864;SDS011;40618;51.166;10.322;2022-12-24T09:02:25;5.90;;;2.13;;
26864;SDS011;40618;51.166;10.322;2022-12-24T09:04:51;5.65;;;1.73;;
26864;SDS011;40618;51.166;10.322;2022-12-24T09:07:16;5.53;;;1.30;;
26864;SDS011;40618;51.166;10.322;2022-12-24T09:09:42;4.35;;;1.25;;
26864;SDS011;40618;51.166;10.322;2022-12-24T09:12:10;6.13;;;1.52;;
26864;SDS011;40618;51.166;10.322;2022-12-24T09:14:38;5.78;;;1.52;;
26864;SDS011;40618;51.166;10.322;2022-12-24T09:17:04;5.65;;;1.45;;
26864;SDS011;40618;51.166;10.322;2022-12-24T09:19:29;4.70;;;1.80;;
26864;SDS011;40618;51.166;10.322;2022-12-24T09:21:55;5.60;;;1.88;;
26864;SDS011;40618;51.166;10.322;2022-12-24T09:24:21;6.43;;;1.50;;
26864;SDS011;40618;51.166;10.322;2022-12-24T09:26:46;6.43;;;1.77;;
26864;SDS011;40618;51.166;10.322;2022-12-24T09:29:13;5.22;;;1.20;;
26864;SDS011;40618;51.166;10.322;2022-12-24T09:31:40;4.20;;;1.83;;
26864;SDS011;40618;51.166;10.322;2022-12-24T09:34:06;3.72;;;1.50;;
26864;SDS011;40618;51.166;10.322;2022-12-24T09:36:32;4.10;;;1.60;;
26864;SDS011;40618;51.166;10.322;2022-12-24T09:38:59;7.35;;;1.30;;
26864;SDS011;40618;51.166;10.322;2022-12-24T09:53:17;6.15;;;1.42;;
26864;SDS011;40618;51.166;10.322;2022-12-24T09:56:09;6.43;;;1.30;;
26864;SDS011;40618;51.166;10.322;2022-12-24T09:58:48;9.75;;;1.60;;
26864;SDS011;40618;51.166;10.322;2022-12-24T10:01:21;3.53;;;1.73;;
26864;SDS011;40618;51.166;10.322;2022-12-24T10:03:48;5.95;;;1.20;;
26864;SDS011;40618;51.166;10.322;2022-12-24T10:29:18;3.58;;;1.30;;
26864;SDS011;40618;51.166;10.322;2022-12-24T10:31:52;6.07;;;1.35;;
26864;SDS011;40618;51.166;10.322;2022-12-24T10:34:30;6.13;;;1.88;;
26864;SDS011;40618;51.166;10.322;2022-12-24T10:37:05;9.13;;;2.45;;
26864;SDS011;40618;51.166;10.322;2022-12-24T10:39:39;6.85;;;2.45;;
26864;SDS011;40618;51.166;10.322;2022-12-24T10:42:07;8.65;;;2.55;;
26864;SDS011;40618;51.166;10.322;2022-12-24T10:44:36;4.80;;;1.85;;
26864;SDS011;40618;51.166;10.322;2022-12-24T10:47:02;6.03;;;1.80;;
26864;SDS011;40618;51.166;10.322;2022-12-24T10:55:04;8.38;;;1.70;;
26864;SDS011;40618;51.166;10.322;2022-12-24T10:58:04;4.68;;;1.60;;
26864;SDS011;40618;51.166;10.322;2022-12-24T11:00:36;9.63;;;1.80;;
26864;SDS011;40618;51.166;10.322;2022-12-24T11:03:05;7.28;;;1.63;;
26864;SDS011;40618;51.166;10.322;2022-12-24T11:05:33;8.60;;;1.55;;
26864;SDS011;40618;51.166;10.322;2022-12-24T11:08:02;6.25;;;1.60;;
26864;SDS011;40618;51.166;10.322;2022-12-24T11:10:38;5.75;;;2.15;;
26864;SDS011;40618;51.166;10.322;2022-12-24T11:16:31;5.68;;;2.22;;
26864;SDS011;40618;51.166;10.322;2022-12-24T11:19:01;5.40;;;1.73;;
26864;SDS011;40618;51.166;10.322;2022-12-24T11:21:34;6.13;;;1.85;;
26864;SDS011;40618;51.166;10.322;2022-12-24T11:24:07;6.20;;;1.73;;
26864;SDS011;40618;51.166;10.322;2022-12-24T11:26:50;10.35;;;2.90;;
26864;SDS011;40618;51.166;10.322;2022-12-24T11:31:50;9.07;;;1.90;;
26864;SDS011;40618;51.166;10.322;2022-12-24T11:34:30;8.48;;;2.10;;
26864;SDS011;40618;51.166;10.322;2022-12-24T11:39:52;4.07;;;1.60;;
26864;SDS011;40618;51.166;10.322;2022-12-24T11:42:34;7.95;;;1.52;;
26864;SDS011;40618;51.166;10.322;2022-12-24T11:45:05;7.13;;;1.58;;
26864;SDS011;40618;51.166;10.322;2022-12-24T11:47:43;6.72;;;1.80;;
26864;SDS011;40618;51.166;10.322;2022-12-24T11:58:16;6.82;;;1.83;;
26864;SDS011;40618;51.166;10.322;2022-12-24T12:01:44;7.70;;;1.65;;
26864;SDS011;40618;51.166;10.322;2022-12-24T12:04:10;11.15;;;2.08;;
26864;SDS011;40618;51.166;10.322;2022-12-24T12:12:27;7.10;;;2.28;;
26864;SDS011;40618;51.166;10.322;2022-12-24T12:14:59;8.63;;;1.98;;
26864;SDS011;40618;51.166;10.322;2022-12-24T12:17:35;5.75;;;1.50;;
26864;SDS011;40618;51.166;10.322;2022-12-24T12:20:21;13.73;;;6.25;;
26864;SDS011;40618;51.166;10.322;2022-12-24T12:25:58;11.07;;;2.45;;
26864;SDS011;40618;51.166;10.322;2022-12-24T12:28:31;7.22;;;2.05;;
26864;SDS011;40618;51.166;10.322;2022-12-24T12:33:47;6.93;;;1.80;;
26864;SDS011;40618;51.166;10.322;2022-12-24T12:36:19;9.50;;;1.95;;
26864;SDS011;40618;51.166;10.322;2022-12-24T12:38:53;5.85;;;1.80;;
26864;SDS011;40618;51.166;10.322;2022-12-24T12:44:15;9.60;;;1.90;;
26864;SDS011;40618;51.166;10.322;2022-12-24T12:55:50;8.82;;;3.05;;
26864;SDS011;40618;51.166;10.322;2022-12-24T12:58:24;7.80;;;2.28;;
26864;SDS011;40618;51.166;10.322;2022-12-24T13:01:00;8.25;;;2.28;;
26864;SDS011;40618;51.166;10.322;2022-12-24T13:06:52;7.60;;;2.17;;
26864;SDS011;40618;51.166;10.322;2022-12-24T13:13:29;8.88;;;2.35;;
26864;SDS011;40618;51.166;10.322;2022-12-24T13:16:38;7.55;;;2.20;;
26864;SDS011;40618;51.166;10.322;2022-12-24T13:22:17;16.23;;;3.78;;
26864;SDS011;40618;51.166;10.322;2022-12-24T13:24:47;7.03;;;2.55;;
26864;SDS011;40618;51.166;10.322;2022-12-24T13:27:18;9.63;;;2.28;;
26864;SDS011;40618;51.166;10.322;2022-12-24T13:29:51;7.45;;;2.30;;
26864;SDS011;40618;51.166;10.322;2022-12-24T13:34:56;8.30;;;1.58;;
26864;SDS011;40618;51.166;10.322;2022-12-24T13:48:00;10.75;;;2.38;;
26864;SDS011;40618;51.166;10.322;2022-12-24T13:50:50;8.20;;;2.00;;
26864;SDS011;40618;51.166;10.322;2022-12-24T13:55:50;7.88;;;2.50;;
26864;SDS011;40618;51.166;10.322;2022-12-24T13:58:21;8.63;;;2.10;;
26864;SDS011;40618;51.166;10.322;2022-12-24T14:01:02;7.95;;;2.20;;
26864;SDS011;40618;51.166;10.322;2022-12-24T14:03:34;9.93;;;2.92;;
26864;SDS011;40618;51.166;10.322;2022-12-24T14:06:32;12.30;;;2.35;;
26864;SDS011;40618;51.166;10.322;2022-12-24T14:09:07;13.75;;;2.88;;
26864;SDS011;40618;51.166;10.322;2022-12-24T14:12:12;6.78;;;2.45;;
26864;SDS011;40618;51.166;10.322;2022-12-24T14:14:53;8.65;;;2.70;;
26864;SDS011;40618;51.166;10.322;2022-12-24T14:17:23;6.43;;;2.47;;
26864;SDS011;40618;51.166;10.322;2022-12-24T14:19:51;8.90;;;2.72;;
26864;SDS011;40618;51.166;10.322;2022-12-24T14:32:38;9.52;;;2.10;;
26864;SDS011;40618;51.166;10.322;2022-12-24T14:37:49;7.93;;;2.42;;
26864;SDS011;40618;51.166;10.322;2022-12-24T14:40:32;6.10;;;2.05;;
26864;SDS011;40618;51.166;10.322;2022-12-24T14:43:21;6.65;;;2.70;;
26864;SDS011;40618;51.166;10.322;2022-12-24T14:46:33;7.78;;;2.22;;
26864;SDS011;40618;51.166;10.322;2022-12-24T14:49:00;9.10;;;2.25;;
26864;SDS011;40618;51.166;10.322;2022-12-24T14:54:46;9.57;;;2.50;;
26864;SDS011;40618;51.166;10.322;2022-12-24T14:57:13;6.07;;;2.13;;
26864;SDS011;40618;51.166;10.322;2022-12-24T14:59:55;8.73;;;2.10;;
26864;SDS011;40618;51.166;10.322;2022-12-24T15:02:28;9.10;;;2.25;;
26864;SDS011;40618;51.166;10.322;2022-12-24T15:05:13;7.30;;;2.60;;
26864;SDS011;40618;51.166;10.322;2022-12-24T15:08:03;6.68;;;2.05;;
26864;SDS011;40618;51.166;10.322;2022-12-24T15:10:37;8.23;;;1.63;;
26864;SDS011;40618;51.166;10.322;2022-12-24T15:13:20;5.28;;;2.08;;
26864;SDS011;40618;51.166;10.322;2022-12-24T15:16:08;5.78;;;1.90;;
26864;SDS011;40618;51.166;10.322;2022-12-24T15:18:38;8.07;;;2.10;;
26864;SDS011;40618;51.166;10.322;2022-12-24T15:21:15;8.23;;;2.90;;
26864;SDS011;40618;51.166;10.322;2022-12-24T15:23:49;12.05;;;3.53;;
26864;SDS011;40618;51.166;10.322;2022-12-24T15:26:29;7.80;;;2.80;;
26864;SDS011;40618;51.166;10.322;2022-12-24T15:29:00;10.13;;;2.40;;
26864;SDS011;40618;51.166;10.322;2022-12-24T15:31:37;9.05;;;2.55;;
26864;SDS011;40618;51.166;10.322;2022-12-24T15:34:03;7.13;;;1.73;;
26864;SDS011;40618;51.166;10.322;2022-12-24T15:39:12;8.60;;;2.85;;
26864;SDS011;40618;51.166;10.322;2022-12-24T15:41:42;6.07;;;2.53;;
26864;SDS011;40618;51.166;10.322;2022-12-24T15:44:30;11.45;;;5.25;;
26864;SDS011;40618;51.166;10.322;2022-12-24T15:47:01;10.30;;;3.67;;
26864;SDS011;40618;51.166;10.322;2022-12-24T15:49:32;8.38;;;2.92;;
26864;SDS011;40618;51.166;10.322;2022-12-24T15:52:09;6.65;;;1.95;;
26864;SDS011;40618;51.166;10.322;2022-12-24T15:54:46;6.90;;;2.13;;
26864;SDS011;40618;51.166;10.322;2022-12-24T15:57:14;7.18;;;1.67;;
26864;SDS011;40618;51.166;10.322;2022-12-24T15:59:52;6.85;;;2.13;;
26864;SDS011;40618;51.166;10.322;2022-12-24T16:02:32;7.43;;;2.60;;
26864;SDS011;40618;51.166;10.322;2022-12-24T16:10:45;10.50;;;3.20;;
26864;SDS011;40618;51.166;10.322;2022-12-24T16:13:18;9.50;;;3.33;;
26864;SDS011;40618;51.166;10.322;2022-12-24T16:15:54;7.85;;;3.17;;
26864;SDS011;40618;51.166;10.322;2022-12-24T16:18:31;9.15;;;2.63;;
26864;SDS011;40618;51.166;10.322;2022-12-24T16:21:21;5.43;;;2.90;;
26864;SDS011;40618;51.166;10.322;2022-12-24T16:24:17;9.75;;;2.60;;
26864;SDS011;40618;51.166;10.322;2022-12-24T16:26:51;9.27;;;3.13;;
26864;SDS011;40618;51.166;10.322;2022-12-24T16:29:17;10.75;;;2.85;;
26864;SDS011;40618;51.166;10.322;2022-12-24T16:32:23;8.13;;;2.38;;
26864;SDS011;40618;51.166;10.322;2022-12-24T16:35:03;8.57;;;2.97;;
26864;SDS011;40618;51.166;10.322;2022-12-24T16:37:32;7.18;;;1.90;;
26864;SDS011;40618;51.166;10.322;2022-12-24T16:39:59;5.50;;;2.10;;
26864;SDS011;40618;51.166;10.322;2022-12-24T16:42:25;10.82;;;2.55;;
26864;SDS011;40618;51.166;10.322;2022-12-24T16:45:09;6.20;;;1.88;;
26864;SDS011;40618;51.166;10.322;2022-12-24T16:47:35;8.77;;;3.20;;
26864;SDS011;40618;51.166;10.322;2022-12-24T16:50:02;7.55;;;2.70;;
26864;SDS011;40618;51.166;10.322;2022-12-24T16:52:31;6.72;;;1.83;;
26864;SDS011;40618;51.166;10.322;2022-12-24T16:54:59;7.80;;;2.22;;
26864;SDS011;40618;51.166;10.322;2022-12-24T16:57:25;11.00;;;3.10;;
26864;SDS011;40618;51.166;10.322;2022-12-24T16:59:52;6.25;;;2.75;;
26864;SDS011;40618;51.166;10.322;2022-12-24T17:02:19;12.85;;;4.30;;
26864;SDS011;40618;51.166;10.322;2022-12-24T17:04:48;8.45;;;2.95;;
26864;SDS011;40618;51.166;10.322;2022-12-24T17:07:15;8.32;;;3.17;;
26864;SDS011;40618;51.166;10.322;2022-12-24T17:09:43;16.17;;;4.60;;
26864;SDS011;40618;51.166;10.322;2022-12-24T17:12:09;12.93;;;3.95;;
26864;SDS011;40618;51.166;10.322;2022-12-24T17:14:37;19.50;;;6.63;;
26864;SDS011;40618;51.166;10.322;2022-12-24T17:17:04;14.20;;;5.35;;
26864;SDS011;40618;51.166;10.322;2022-12-24T17:19:29;11.73;;;4.75;;
26864;SDS011;40618;51.166;10.322;2022-12-24T17:21:56;9.07;;;4.18;;
26864;SDS011;40618;51.166;10.322;2022-12-24T17:24:21;17.60;;;5.72;;
26864;SDS011;40618;51.166;10.322;2022-12-24T17:26:47;11.93;;;5.13;;
26864;SDS011;40618;51.166;10.322;2022-12-24T17:29:12;14.32;;;6.85;;
26864;SDS011;40618;51.166;10.322;2022-12-24T17:31:38;14.82;;;6.22;;
26864;SDS011;40618;51.166;10.322;2022-12-24T17:34:04;11.00;;;6.28;;
26864;SDS011;40618;51.166;10.322;2022-12-24T17:36:30;13.52;;;6.10;;
26864;SDS011;40618;51.166;10.322;2022-12-24T17:38:56;8.63;;;4.50;;